createdAt,value
2018-02-18T00:00:44.041Z,1.40
2018-02-18T00:03:11.293Z,1.40
2018-02-18T00:05:38.953Z,1.50
2018-02-18T00:08:06.526Z,1.50
2018-02-18T00:10:33.866Z,1.50
2018-02-18T00:13:02.170Z,1.50
2018-02-18T00:15:29.185Z,1.50
2018-02-18T00:17:56.148Z,1.50
2018-02-18T00:20:23.721Z,1.60
2018-02-18T00:22:50.719Z,1.70
2018-02-18T00:25:17.425Z,1.60
2018-02-18T00:27:44.405Z,1.60
2018-02-18T00:30:10.700Z,1.60
2018-02-18T00:32:37.441Z,1.60
2018-02-18T00:35:05.181Z,1.60
2018-02-18T00:37:31.425Z,1.60
2018-02-18T00:39:57.723Z,1.60
2018-02-18T00:42:24.049Z,1.60
2018-02-18T00:44:50.860Z,1.60
2018-02-18T00:47:18.377Z,1.60
2018-02-18T00:49:44.652Z,1.70
2018-02-18T00:52:11.777Z,1.60
2018-02-18T00:54:38.571Z,1.60
2018-02-18T00:57:05.951Z,1.60
2018-02-18T00:59:33.022Z,1.60
2018-02-18T01:02:00.433Z,1.50
2018-02-18T01:04:27.105Z,1.50
2018-02-18T01:06:54.651Z,1.50
2018-02-18T01:09:21.401Z,1.50
2018-02-18T01:11:48.380Z,1.50
2018-02-18T01:14:15.099Z,1.50
2018-02-18T01:16:42.093Z,1.50
2018-02-18T01:19:08.897Z,1.50
2018-02-18T01:21:36.325Z,1.50
2018-02-18T01:24:02.588Z,1.50
2018-02-18T01:26:30.026Z,1.50
2018-02-18T01:28:56.266Z,1.50
2018-02-18T01:31:22.523Z,1.50
2018-02-18T01:33:50.172Z,1.50
2018-02-18T01:36:17.897Z,1.50
2018-02-18T01:38:44.612Z,1.50
2018-02-18T01:41:11.601Z,1.50
2018-02-18T01:43:37.889Z,1.60
2018-02-18T01:46:05.225Z,1.50
2018-02-18T01:48:31.892Z,1.50
2018-02-18T01:50:58.892Z,1.50
2018-02-18T01:53:25.148Z,1.50
2018-02-18T01:55:51.462Z,1.50
2018-02-18T01:58:18.273Z,1.50
2018-02-18T02:00:45.257Z,1.60
2018-02-18T02:03:11.497Z,1.60
2018-02-18T02:05:38.300Z,1.40
2018-02-18T02:08:05.297Z,1.40
2018-02-18T02:10:32.194Z,1.40
2018-02-18T02:12:59.865Z,1.40
2018-02-18T02:15:27.473Z,1.40
2018-02-18T02:17:54.281Z,1.40
2018-02-18T02:20:21.778Z,1.40
2018-02-18T02:22:48.444Z,1.30
2018-02-18T02:25:15.525Z,1.40
2018-02-18T02:27:42.505Z,1.40
2018-02-18T02:30:08.778Z,1.40
2018-02-18T02:32:35.396Z,1.40
2018-02-18T02:35:01.644Z,1.40
2018-02-18T02:37:27.932Z,1.40
2018-02-18T02:39:55.293Z,1.30
2018-02-18T02:42:22.282Z,1.30
2018-02-18T02:44:49.305Z,1.30
2018-02-18T02:47:16.751Z,1.30
2018-02-18T02:49:43.729Z,1.30
2018-02-18T02:52:09.974Z,1.40
2018-02-18T02:54:36.586Z,1.20
2018-02-18T02:57:04.053Z,1.20
2018-02-18T02:59:31.500Z,1.20
2018-02-18T03:01:58.547Z,1.20
2018-02-18T03:04:26.028Z,1.20
2018-02-18T03:06:53.489Z,1.20
2018-02-18T03:09:20.473Z,1.10
2018-02-18T03:11:46.720Z,1.20
2018-02-18T03:14:13.593Z,1.10
2018-02-18T03:16:40.203Z,1.00
2018-02-18T03:19:06.961Z,1.00
2018-02-18T03:21:33.761Z,1.00
2018-02-18T03:24:00.805Z,1.00
2018-02-18T03:26:27.761Z,1.00
2018-02-18T03:28:54.742Z,0.90
2018-02-18T03:31:20.998Z,0.80
2018-02-18T03:33:47.641Z,1.00
2018-02-18T03:36:13.881Z,0.90
2018-02-18T03:38:40.173Z,0.80
2018-02-18T03:41:06.449Z,0.80
2018-02-18T03:43:32.694Z,0.80
2018-02-18T03:46:00.429Z,0.80
2018-02-18T03:48:27.449Z,0.90
2018-02-18T03:50:54.436Z,0.90
2018-02-18T03:53:21.246Z,0.80
2018-02-18T03:55:48.283Z,0.90
2018-02-18T03:58:14.905Z,0.90
2018-02-18T04:00:41.162Z,0.90
2018-02-18T04:03:07.413Z,0.90
2018-02-18T04:05:35.060Z,0.90
2018-02-18T04:08:01.431Z,0.90
2018-02-18T04:10:27.681Z,0.90
2018-02-18T04:12:54.500Z,0.90
2018-02-18T04:15:22.004Z,0.90
2018-02-18T04:17:48.713Z,1.00
2018-02-18T04:20:16.352Z,1.00
2018-02-18T04:22:42.593Z,1.00
2018-02-18T04:25:10.050Z,1.00
2018-02-18T04:27:36.652Z,1.00
2018-02-18T04:30:03.857Z,0.90
2018-02-18T04:32:31.184Z,0.90
2018-02-18T04:34:57.428Z,0.90
2018-02-18T04:37:23.657Z,0.90
2018-02-18T04:39:49.961Z,0.90
2018-02-18T04:42:16.214Z,0.90
2018-02-18T04:44:43.217Z,0.90
2018-02-18T04:47:11.185Z,0.80
2018-02-18T04:49:38.173Z,0.80
2018-02-18T04:52:04.867Z,0.80
2018-02-18T04:54:31.115Z,0.90
2018-02-18T04:56:58.095Z,0.90
2018-02-18T04:59:24.713Z,0.90
2018-02-18T05:01:52.041Z,0.90
2018-02-18T05:04:19.333Z,0.90
2018-02-18T05:06:46.321Z,0.90
2018-02-18T05:09:13.011Z,1.00
2018-02-18T05:11:39.625Z,0.90
2018-02-18T05:14:07.025Z,0.90
2018-02-18T05:16:34.449Z,0.90
2018-02-18T05:19:01.101Z,0.90
2018-02-18T05:21:27.924Z,0.90
2018-02-18T05:23:54.153Z,0.90
2018-02-18T05:26:21.264Z,1.00
2018-02-18T05:28:48.251Z,0.90
2018-02-18T05:31:14.508Z,0.90
2018-02-18T05:33:41.289Z,0.90
2018-02-18T05:36:07.524Z,0.90
2018-02-18T05:38:34.974Z,1.00
2018-02-18T05:41:01.235Z,0.90
2018-02-18T05:43:28.217Z,0.90
2018-02-18T05:45:55.339Z,0.90
2018-02-18T05:48:22.910Z,0.90
2018-02-18T05:50:49.899Z,1.00
2018-02-18T05:53:16.148Z,0.90
2018-02-18T05:55:42.734Z,1.00
2018-02-18T05:58:11.421Z,1.00
2018-02-18T06:00:38.418Z,1.00
2018-02-18T06:03:04.682Z,1.00
2018-02-18T06:05:31.456Z,1.00
2018-02-18T06:07:58.818Z,1.00
2018-02-18T06:10:26.161Z,1.00
2018-02-18T06:12:53.625Z,0.90
2018-02-18T06:15:19.865Z,1.00
2018-02-18T06:17:47.435Z,1.00
2018-02-18T06:20:15.556Z,1.00
2018-02-18T06:22:41.811Z,1.00
2018-02-18T06:25:08.606Z,1.00
2018-02-18T06:27:50.513Z,1.00
2018-02-18T06:30:16.781Z,1.00
2018-02-18T06:32:43.419Z,1.10
2018-02-18T06:35:10.297Z,1.10
2018-02-18T06:37:36.569Z,1.10
2018-02-18T06:40:02.841Z,1.20
2018-02-18T06:42:29.507Z,1.20
2018-02-18T06:44:56.377Z,1.20
2018-02-18T06:47:23.785Z,1.20
2018-02-18T06:49:50.036Z,1.20
2018-02-18T06:52:16.323Z,1.20
2018-02-18T06:54:43.318Z,1.20
2018-02-18T06:57:09.993Z,1.20
2018-02-18T06:59:36.228Z,1.30
2018-02-18T07:02:03.231Z,1.30
2018-02-18T07:04:29.913Z,1.20
2018-02-18T07:06:56.780Z,1.20
2018-02-18T07:09:23.819Z,1.30
2018-02-18T07:11:50.050Z,1.30
2018-02-18T07:14:18.545Z,1.40
2018-02-18T07:16:44.784Z,1.40
2018-02-18T07:19:12.097Z,1.50
2018-02-18T07:21:38.793Z,1.50
2018-02-18T07:24:05.785Z,1.70
2018-02-18T07:26:32.494Z,1.70
2018-02-18T07:28:59.482Z,1.80
2018-02-18T07:31:25.737Z,1.80
2018-02-18T07:33:52.399Z,1.80
2018-02-18T07:36:19.772Z,1.90
2018-02-18T07:38:46.019Z,1.90
2018-02-18T07:41:12.996Z,1.90
2018-02-18T07:43:39.716Z,1.90
2018-02-18T07:46:07.153Z,2.00
2018-02-18T07:48:34.147Z,2.00
2018-02-18T07:51:00.414Z,2.00
2018-02-18T07:53:26.990Z,2.10
2018-02-18T07:55:53.988Z,2.20
2018-02-18T07:58:20.233Z,2.20
2018-02-18T08:00:46.849Z,2.20
2018-02-18T08:03:14.248Z,2.30
2018-02-18T08:05:41.131Z,2.30
2018-02-18T08:08:08.121Z,2.40
2018-02-18T08:10:35.048Z,2.40
2018-02-18T08:13:02.602Z,2.30
2018-02-18T08:15:29.632Z,2.30
2018-02-18T08:17:56.401Z,2.30
2018-02-18T08:20:23.772Z,2.30
2018-02-18T08:22:50.785Z,2.40
2018-02-18T08:25:17.469Z,2.40
2018-02-18T08:27:44.462Z,2.40
2018-02-18T08:30:10.772Z,2.40
2018-02-18T08:32:39.018Z,2.40
2018-02-18T08:35:06.011Z,2.50
2018-02-18T08:37:32.258Z,2.50
2018-02-18T08:39:58.853Z,2.60
2018-02-18T08:42:26.404Z,2.70
2018-02-18T08:44:53.261Z,2.70
2018-02-18T08:47:20.265Z,2.80
2018-02-18T08:49:46.921Z,2.90
2018-02-18T08:52:13.720Z,3.00
2018-02-18T08:54:40.026Z,3.00
2018-02-18T08:57:06.281Z,3.00
2018-02-18T08:59:33.772Z,3.00
2018-02-18T09:02:00.512Z,3.00
2018-02-18T09:04:27.329Z,3.10
2018-02-18T09:06:54.321Z,3.20
2018-02-18T09:09:20.566Z,3.20
2018-02-18T09:11:46.834Z,3.20
2018-02-18T09:14:13.777Z,3.20
2018-02-18T09:16:40.071Z,3.30
2018-02-18T09:19:06.954Z,3.30
2018-02-18T09:21:33.606Z,3.40
2018-02-18T09:23:59.857Z,3.40
2018-02-18T09:26:26.474Z,3.40
2018-02-18T09:28:52.732Z,3.50
2018-02-18T09:31:18.981Z,3.50
2018-02-18T09:33:46.414Z,3.60
2018-02-18T09:36:12.685Z,3.60
2018-02-18T09:38:39.515Z,3.60
2018-02-18T09:41:05.751Z,3.80
2018-02-18T09:43:32.746Z,4.10
2018-02-18T09:46:00.471Z,4.10
2018-02-18T09:48:28.001Z,4.40
2018-02-18T09:50:54.655Z,4.40
2018-02-18T09:53:20.898Z,4.60
2018-02-18T09:55:48.293Z,4.80
2018-02-18T09:58:15.029Z,4.70
2018-02-18T10:00:42.573Z,5.00
2018-02-18T10:03:08.844Z,5.00
2018-02-18T10:05:35.776Z,5.10
2018-02-18T10:08:02.780Z,5.20
2018-02-18T10:10:29.641Z,5.20
2018-02-18T10:12:56.525Z,5.30
2018-02-18T10:15:23.506Z,5.20
2018-02-18T10:17:50.325Z,5.20
2018-02-18T10:20:17.807Z,5.10
2018-02-18T10:22:44.097Z,5.00
2018-02-18T10:25:10.726Z,5.00
2018-02-18T10:27:38.469Z,4.90
2018-02-18T10:30:04.714Z,4.90
2018-02-18T10:32:31.403Z,4.90
2018-02-18T10:34:58.394Z,4.90
2018-02-18T10:37:24.987Z,4.80
2018-02-18T10:39:51.233Z,4.80
2018-02-18T10:42:18.262Z,4.60
2018-02-18T10:44:46.075Z,4.50
2018-02-18T10:47:12.894Z,4.50
2018-02-18T10:49:39.530Z,4.40
2018-02-18T10:52:06.891Z,4.50
2018-02-18T10:54:33.537Z,4.50
2018-02-18T10:57:00.385Z,4.60
2018-02-18T10:59:26.633Z,4.60
2018-02-18T11:01:53.628Z,4.80
2018-02-18T11:04:20.449Z,4.70
2018-02-18T11:06:46.705Z,4.80
2018-02-18T11:09:12.953Z,4.70
2018-02-18T11:11:39.219Z,4.80
2018-02-18T11:14:05.995Z,5.00
2018-02-18T11:16:32.993Z,5.10
2018-02-18T11:18:59.740Z,5.10
2018-02-18T11:21:26.429Z,5.00
2018-02-18T11:23:54.293Z,5.20
2018-02-18T11:26:21.624Z,5.30
2018-02-18T11:28:47.878Z,5.30
2018-02-18T11:31:14.137Z,5.40
2018-02-18T11:33:41.558Z,5.20
2018-02-18T11:36:08.547Z,5.20
2018-02-18T11:38:35.542Z,5.20
2018-02-18T11:41:02.323Z,5.10
2018-02-18T11:43:29.064Z,5.00
2018-02-18T11:45:57.259Z,5.10
2018-02-18T11:48:24.241Z,5.00
2018-02-18T11:50:51.884Z,5.00
2018-02-18T11:53:19.605Z,4.80
2018-02-18T11:55:46.393Z,4.80
2018-02-18T11:58:13.387Z,4.80
2018-02-18T12:00:39.643Z,4.80
2018-02-18T12:03:05.910Z,4.80
2018-02-18T12:05:33.473Z,4.80
2018-02-18T12:08:00.468Z,4.90
2018-02-18T12:10:26.715Z,4.90
2018-02-18T12:12:53.710Z,5.00
2018-02-18T12:15:20.693Z,5.40
2018-02-18T12:17:47.758Z,5.40
2018-02-18T12:20:14.526Z,5.60
2018-02-18T12:22:40.765Z,5.70
2018-02-18T12:25:07.549Z,5.90
2018-02-18T12:27:34.546Z,6.00
2018-02-18T12:30:00.797Z,6.00
2018-02-18T12:32:27.572Z,5.90
2018-02-18T12:34:53.940Z,6.10
2018-02-18T12:37:20.187Z,6.10
2018-02-18T12:39:46.454Z,6.10
2018-02-18T12:42:13.110Z,6.00
2018-02-18T12:44:39.366Z,6.10
2018-02-18T12:47:07.025Z,6.10
2018-02-18T12:49:33.775Z,6.00
2018-02-18T12:52:01.655Z,6.10
2018-02-18T12:54:28.636Z,6.30
2018-02-18T12:56:54.929Z,6.30
2018-02-18T12:59:22.291Z,6.50
2018-02-18T13:01:49.256Z,6.50
2018-02-18T13:04:16.323Z,6.30
2018-02-18T13:06:42.574Z,6.30
2018-02-18T13:09:08.823Z,6.20
2018-02-18T13:11:35.059Z,6.10
2018-02-18T13:14:02.030Z,6.10
2018-02-18T13:16:29.007Z,5.80
2018-02-18T13:18:56.435Z,5.70
2018-02-18T13:21:22.679Z,5.60
2018-02-18T13:23:48.931Z,5.60
2018-02-18T13:26:16.350Z,5.60
2018-02-18T13:28:43.027Z,5.60
2018-02-18T13:31:09.957Z,5.50
2018-02-18T13:33:36.635Z,5.40
2018-02-18T13:36:03.643Z,5.20
2018-02-18T13:38:29.891Z,5.20
2018-02-18T13:40:56.526Z,5.20
2018-02-18T13:43:22.763Z,5.20
2018-02-18T13:45:49.419Z,5.20
2018-02-18T13:48:16.070Z,5.20
2018-02-18T13:50:42.693Z,5.20
2018-02-18T13:53:08.947Z,5.30
2018-02-18T13:55:35.189Z,5.30
2018-02-18T13:58:02.184Z,5.20
2018-02-18T14:00:28.442Z,5.20
2018-02-18T14:02:54.844Z,5.20
2018-02-18T14:05:21.414Z,5.20
2018-02-18T14:07:47.655Z,5.10
2018-02-18T14:10:13.908Z,5.20
2018-02-18T14:12:40.179Z,5.10
2018-02-18T14:15:06.803Z,5.00
2018-02-18T14:17:33.782Z,4.90
2018-02-18T14:20:00.612Z,4.90
2018-02-18T14:22:28.003Z,4.70
2018-02-18T14:24:54.707Z,4.80
2018-02-18T14:27:22.475Z,4.80
2018-02-18T14:29:49.451Z,5.00
2018-02-18T14:32:16.113Z,5.00
2018-02-18T14:34:43.027Z,5.00
2018-02-18T14:37:10.027Z,5.10
2018-02-18T14:39:36.278Z,5.10
2018-02-18T14:42:14.780Z,5.10
2018-02-18T14:44:55.284Z,5.00
2018-02-18T14:47:48.801Z,5.00
2018-02-18T14:50:27.260Z,5.00
2018-02-18T14:53:07.124Z,5.00
2018-02-18T14:55:45.527Z,5.00
2018-02-18T14:58:11.795Z,4.90
2018-02-18T15:00:38.579Z,4.90
2018-02-18T15:03:04.811Z,4.90
2018-02-18T15:05:31.174Z,4.80
2018-02-18T15:07:58.174Z,4.60
2018-02-18T15:10:24.444Z,4.60
2018-02-18T15:12:51.806Z,4.60
2018-02-18T15:15:18.827Z,4.60
2018-02-18T15:17:45.662Z,4.60
2018-02-18T15:20:12.651Z,4.60
2018-02-18T15:22:38.874Z,4.60
2018-02-18T15:25:05.538Z,4.60
2018-02-18T15:27:32.582Z,4.60
2018-02-18T15:29:58.828Z,4.50
2018-02-18T15:32:25.555Z,4.50
2018-02-18T15:34:52.579Z,4.50
2018-02-18T15:37:19.491Z,4.50
2018-02-18T15:39:46.110Z,4.40
2018-02-18T15:42:13.682Z,4.40
2018-02-18T15:44:40.678Z,4.30
2018-02-18T15:47:07.378Z,4.30
2018-02-18T15:49:34.811Z,4.40
2018-02-18T15:52:02.966Z,4.30
2018-02-18T15:54:29.219Z,4.30
2018-02-18T15:56:55.487Z,4.30
2018-02-18T15:59:22.484Z,4.20
2018-02-18T16:01:48.763Z,4.20
2018-02-18T16:04:15.140Z,4.10
2018-02-18T16:06:41.747Z,4.10
2018-02-18T16:09:08.739Z,4.10
2018-02-18T16:11:35.011Z,4.10
2018-02-18T16:14:02.558Z,4.10
2018-02-18T16:16:29.238Z,4.00
2018-02-18T16:18:55.846Z,4.10
2018-02-18T16:21:22.105Z,4.00
2018-02-18T16:23:49.554Z,3.70
2018-02-18T16:26:16.223Z,3.70
2018-02-18T16:28:43.209Z,3.60
2018-02-18T16:31:09.453Z,3.60
2018-02-18T16:33:36.334Z,3.60
2018-02-18T16:36:03.203Z,3.50
2018-02-18T16:38:29.491Z,3.50
2018-02-18T16:40:56.401Z,3.50
2018-02-18T16:43:23.773Z,3.50
2018-02-18T16:45:50.603Z,3.50
2018-02-18T16:48:17.590Z,3.50
2018-02-18T16:50:44.285Z,3.50
2018-02-18T16:53:10.538Z,3.40
2018-02-18T16:55:37.518Z,3.40
2018-02-18T16:58:04.027Z,3.30
2018-02-18T17:00:31.471Z,3.30
2018-02-18T17:02:57.713Z,3.30
2018-02-18T17:05:23.958Z,3.30
2018-02-18T17:07:50.971Z,3.10
2018-02-18T17:10:17.227Z,3.20
2018-02-18T17:12:45.325Z,3.20
2018-02-18T17:15:12.780Z,3.20
2018-02-18T17:17:39.826Z,3.20
2018-02-18T17:20:06.471Z,3.20
2018-02-18T17:22:33.818Z,3.10
2018-02-18T17:25:01.185Z,3.00
2018-02-18T17:27:27.433Z,3.00
2018-02-18T17:29:55.045Z,3.00
2018-02-18T17:32:21.747Z,3.00
2018-02-18T17:34:48.737Z,3.10
2018-02-18T17:37:15.537Z,3.10
2018-02-18T17:39:42.505Z,3.10
2018-02-18T17:42:09.411Z,3.00
2018-02-18T17:44:35.677Z,3.00
2018-02-18T17:47:03.241Z,3.00
2018-02-18T17:49:30.247Z,3.00
2018-02-18T17:51:56.524Z,3.00
2018-02-18T17:54:23.529Z,3.00
2018-02-18T17:56:49.809Z,3.00
2018-02-18T17:59:16.901Z,3.10
2018-02-18T18:01:43.619Z,3.10
2018-02-18T18:04:11.072Z,3.10
2018-02-18T18:06:38.057Z,3.10
2018-02-18T18:09:04.778Z,3.10
2018-02-18T18:11:31.772Z,3.10
2018-02-18T18:13:58.555Z,3.10
2018-02-18T18:16:24.809Z,3.10
2018-02-18T18:18:52.161Z,2.90
2018-02-18T18:21:19.218Z,2.90
2018-02-18T18:23:46.861Z,2.90
2018-02-18T18:26:13.829Z,2.90
2018-02-18T18:28:41.309Z,2.90
2018-02-18T18:31:08.298Z,2.90
2018-02-18T18:33:35.086Z,3.00
2018-02-18T18:36:01.741Z,3.00
2018-02-18T18:38:29.063Z,2.90
2018-02-18T18:40:55.320Z,2.80
2018-02-18T18:43:21.667Z,2.80
2018-02-18T18:45:49.298Z,2.80
2018-02-18T18:48:15.842Z,2.80
2018-02-18T18:50:42.085Z,2.70
2018-02-18T18:53:09.059Z,2.80
2018-02-18T18:55:36.877Z,2.80
2018-02-18T18:58:03.122Z,2.80
2018-02-18T19:00:30.184Z,2.90
2018-02-18T19:02:56.425Z,2.80
2018-02-18T19:05:23.165Z,2.80
2018-02-18T19:07:49.425Z,2.80
2018-02-18T19:10:15.695Z,2.70
2018-02-18T19:12:41.971Z,2.80
2018-02-18T19:15:08.610Z,2.80
2018-02-18T19:17:34.877Z,2.80
2018-02-18T19:20:02.235Z,2.60
2018-02-18T19:22:28.994Z,2.60
2018-02-18T19:24:56.546Z,2.70
2018-02-18T19:27:23.614Z,2.70
2018-02-18T19:29:50.654Z,2.60
2018-02-18T19:32:18.060Z,2.60
2018-02-18T19:34:44.684Z,2.60
2018-02-18T19:37:11.602Z,2.50
2018-02-18T19:39:37.862Z,2.40
2018-02-18T19:42:04.902Z,2.40
2018-02-18T19:44:31.904Z,2.30
2018-02-18T19:46:58.756Z,2.30
2018-02-18T19:49:25.034Z,2.20
2018-02-18T19:51:52.029Z,2.30
2018-02-18T19:54:18.826Z,2.20
2018-02-18T19:56:45.837Z,2.20
2018-02-18T19:59:12.191Z,2.20
2018-02-18T20:01:38.964Z,2.20
2018-02-18T20:04:06.435Z,2.20
2018-02-18T20:06:33.435Z,2.20
2018-02-18T20:08:59.739Z,2.20
2018-02-18T20:11:26.057Z,2.20
2018-02-18T20:13:53.421Z,2.30
2018-02-18T20:16:20.430Z,2.30
2018-02-18T20:18:47.345Z,2.20
2018-02-18T20:21:13.671Z,2.20
2018-02-18T20:23:40.465Z,2.20
2018-02-18T20:26:07.124Z,2.20
2018-02-18T20:28:34.133Z,2.00
2018-02-18T20:31:00.941Z,2.00
2018-02-18T20:33:28.514Z,2.00
2018-02-18T20:35:55.513Z,2.10
2018-02-18T20:38:22.153Z,2.10
2018-02-18T20:40:48.851Z,2.00
2018-02-18T20:43:15.113Z,1.90
2018-02-18T20:45:41.938Z,2.00
2018-02-18T20:48:08.220Z,2.00
2018-02-18T20:50:34.502Z,2.10
2018-02-18T20:53:01.554Z,2.20
2018-02-18T20:55:28.685Z,2.20
2018-02-18T20:57:55.690Z,2.20
2018-02-18T21:00:22.917Z,2.10
2018-02-18T21:02:49.915Z,2.10
2018-02-18T21:05:16.668Z,2.10
2018-02-18T21:07:42.921Z,2.10
2018-02-18T21:10:11.328Z,2.00
2018-02-18T21:12:38.370Z,2.00
2018-02-18T21:15:05.091Z,2.10
2018-02-18T21:17:31.507Z,2.10
2018-02-18T21:19:58.180Z,2.10
2018-02-18T21:22:24.434Z,2.00
2018-02-18T21:24:51.997Z,1.90
2018-02-18T21:27:18.994Z,1.80
2018-02-18T21:29:45.770Z,1.90
2018-02-18T21:32:12.546Z,1.80
2018-02-18T21:34:39.530Z,1.80
2018-02-18T21:37:05.788Z,1.80
2018-02-18T21:39:32.578Z,1.70
2018-02-18T21:41:59.573Z,1.70
2018-02-18T21:44:25.827Z,1.60
2018-02-18T21:46:52.720Z,1.60
2018-02-18T21:49:19.705Z,1.60
2018-02-18T21:51:45.980Z,1.60
2018-02-18T21:54:12.649Z,1.60
2018-02-18T21:56:39.644Z,1.40
2018-02-18T21:59:05.967Z,1.40
2018-02-18T22:01:32.577Z,1.40
2018-02-18T22:03:59.557Z,1.40
2018-02-18T22:06:25.898Z,1.30
2018-02-18T22:08:52.580Z,1.20
2018-02-18T22:11:18.832Z,1.00
2018-02-18T22:13:46.365Z,0.70
2018-02-18T22:16:12.620Z,0.80
2018-02-18T22:18:41.130Z,0.60
2018-02-18T22:21:08.185Z,0.50
2018-02-18T22:23:35.777Z,0.40
2018-02-18T22:26:02.594Z,0.40
2018-02-18T22:28:29.196Z,0.40
2018-02-18T22:30:56.095Z,0.40
2018-02-18T22:33:23.545Z,0.30
2018-02-18T22:35:50.537Z,0.20
2018-02-18T22:38:16.791Z,0.20
2018-02-18T22:40:43.068Z,0.10
2018-02-18T22:43:10.121Z,0.00
2018-02-18T22:45:37.267Z,-0.10
2018-02-18T22:48:04.225Z,-0.10
2018-02-18T22:50:31.221Z,-0.30
2018-02-18T22:52:58.211Z,-0.30
2018-02-18T22:55:24.446Z,-0.40
2018-02-18T22:57:50.692Z,-0.40
2018-02-18T23:00:19.185Z,-0.70
2018-02-18T23:02:46.180Z,-0.60
2018-02-18T23:05:19.537Z,-0.70
2018-02-18T23:07:46.530Z,-0.60
2018-02-18T23:10:12.790Z,-0.70
2018-02-18T23:12:39.565Z,-0.70
2018-02-18T23:15:07.085Z,-0.80
2018-02-18T23:17:33.338Z,-0.80
2018-02-18T23:20:00.113Z,-0.90
2018-02-18T23:22:27.600Z,-1.00
2018-02-18T23:24:54.352Z,-1.00
2018-02-18T23:27:21.050Z,-1.10
2018-02-18T23:29:48.715Z,-1.10
2018-02-18T23:32:15.434Z,-1.10
2018-02-18T23:34:41.673Z,-1.10
2018-02-18T23:37:07.946Z,-1.20
2018-02-18T23:39:35.446Z,-1.20
2018-02-18T23:42:01.695Z,-1.20
2018-02-18T23:44:27.987Z,-1.30
2018-02-18T23:46:54.689Z,-1.20
2018-02-18T23:49:20.947Z,-1.30
2018-02-18T23:51:48.213Z,-1.30
2018-02-18T23:54:15.676Z,-1.30
2018-02-18T23:56:42.715Z,-1.40
2018-02-18T23:59:08.946Z,-1.40
